Yalesville, CT

9:49 PM EDT on May 06, 2015 (GMT -0400)
Oakdale Woods | | Change Station
CLOSE
Current Station
Personal Weather Station
Location: Wallingford, CT
Elevation: 325 ft
Nearby Weather Stations

Elev 325 ft 41.46 °N, 72.85 °W | Updated 4 minutes ago

Clear
Clear
54.7 °F
Feels Like 54.7 °F
N
0.0
Wind Variable Wind from North
Gusts 0.7 mph

Today
High -- | Low -- °F
--% Chance of Precip.
Yesterday
High -- | Low -- °F
Precip. -- in
5:42 AM 7:54 PM
Waning Gibbous, 91% visible
Pressure 30.23 in
Visibility 10.0 miles
Clouds Clear
Dew Point 37 °F
Humidity 52%
Rainfall 0.00 in
Snow Depth Not available.
UV 0 out of 12
Pollen 8.80 out of 12
Air Quality Not available.
Flu Activity Widespread
METAR KMMK 070053Z AUTO 00000KT 10SM CLR 13/01 A3023 RMK AO2 SLP237 T01280006 TSNO $

More Conditions Fewer Conditions

Pressure 30.23 in
Visibility 10.0 miles
Clouds Clear
Dew Point 37 °F
Humidity 52%
Rainfall 0.00 in
Snow Depth Not available.
UV 0 out of 12
Pollen 8.80 out of 12
Air Quality Not available.
Flu Activity Widespread
METAR KMMK 070053Z AUTO 00000KT 10SM CLR 13/01 A3023 RMK AO2 SLP237 T01280006 TSNO $

More Conditions Fewer Conditions

10-Day Weather Forecast

Almanac

Astronomy

May. 06, 2015 Rise Set
Actual Time
Civil Twilight
Nautical Twilight
Astronomical Twilight
Moon
Length of Visible Light
Length of Day
Tomorrow will be .
, % of the Moon is Illuminated

Today's Extremes

State Highs State Lows

Community

WunderPhotos

Upload Photos

1,819,070 photos uploaded!

WunderBlogs® & News

Nearby

Air Quality

  Air Quality AQ Index Pollutant
Not available.

Snow Depth

Station Depth Elevation

Earthquake Activity

City Distance Mag. Time & Date
Minimum magnitude displayed is 2.5.

Coastal Water Temperatures

Place Temperature

Stations

Nearby Weather Stations

Station Location Temp. Windchill Dew Point Humidity Wind Precip. Elev Updated Type